createdAt,value
2019-04-14T00:00:08.004Z,972.12
2019-04-14T00:01:08.625Z,972.17
2019-04-14T00:02:07.951Z,972.15
2019-04-14T00:03:08.663Z,972.18
2019-04-14T00:04:07.893Z,972.19
2019-04-14T00:05:08.236Z,972.20
2019-04-14T00:06:09.022Z,972.13
2019-04-14T00:07:08.014Z,972.11
2019-04-14T00:08:08.785Z,972.10
2019-04-14T00:09:07.752Z,972.04
2019-04-14T00:10:07.724Z,972.10
2019-04-14T00:11:08.313Z,972.06
2019-04-14T00:12:09.023Z,972.06
2019-04-14T00:13:08.865Z,972.08
2019-04-14T00:14:07.614Z,972.05
2019-04-14T00:15:19.287Z,972.06
2019-04-14T00:16:07.554Z,972.06
2019-04-14T00:17:08.498Z,972.05
2019-04-14T00:18:07.560Z,972.04
2019-04-14T00:19:08.676Z,972.06
2019-04-14T00:20:07.449Z,972.03
2019-04-14T00:21:08.650Z,972.07
2019-04-14T00:22:07.388Z,972.08
2019-04-14T00:23:08.656Z,972.01
2019-04-14T00:24:07.403Z,971.99
2019-04-14T00:25:08.563Z,972.00
2019-04-14T00:26:07.291Z,971.96
2019-04-14T00:27:08.445Z,971.98
2019-04-14T00:28:07.398Z,971.99
2019-04-14T00:29:07.192Z,971.96
2019-04-14T00:30:07.597Z,972.00
2019-04-14T00:31:07.134Z,971.99
2019-04-14T00:32:07.364Z,971.99
2019-04-14T00:33:08.373Z,972.01
2019-04-14T00:34:07.303Z,972.01
2019-04-14T00:35:08.147Z,972.01
2019-04-14T00:36:06.995Z,971.99
2019-04-14T00:37:07.745Z,971.97
2019-04-14T00:38:06.939Z,971.98
2019-04-14T00:39:07.489Z,971.99
2019-04-14T00:40:06.886Z,971.96
2019-04-14T00:41:07.177Z,971.98
2019-04-14T00:42:08.176Z,971.98
2019-04-14T00:43:07.009Z,971.93
2019-04-14T00:44:07.822Z,971.96
2019-04-14T00:45:06.988Z,971.98
2019-04-14T00:46:07.869Z,971.94
2019-04-14T00:47:07.106Z,971.93
2019-04-14T00:48:11.818Z,971.95
2019-04-14T00:49:07.066Z,971.90
2019-04-14T00:50:07.893Z,971.91
2019-04-14T00:51:06.969Z,971.90
2019-04-14T00:52:07.862Z,971.94
2019-04-14T00:53:07.652Z,971.91
2019-04-14T00:54:06.704Z,971.93
2019-04-14T00:55:07.563Z,971.97
2019-04-14T00:56:06.444Z,971.98
2019-04-14T00:57:07.312Z,971.96
2019-04-14T00:58:06.381Z,971.96
2019-04-14T00:59:07.115Z,971.99
2019-04-14T01:00:06.347Z,971.96
2019-04-14T01:01:06.959Z,971.99
2019-04-14T01:02:06.288Z,971.94
2019-04-14T01:03:06.910Z,971.98
2019-04-14T01:04:06.220Z,971.95
2019-04-14T01:05:06.619Z,971.91
2019-04-14T01:06:07.530Z,971.90
2019-04-14T01:07:06.526Z,971.92
2019-04-14T01:08:07.272Z,971.90
2019-04-14T01:09:06.414Z,971.86
2019-04-14T01:10:06.098Z,971.92
2019-04-14T01:11:07.309Z,971.87
2019-04-14T01:12:06.107Z,971.91
2019-04-14T01:13:09.338Z,971.94
2019-04-14T01:14:05.950Z,971.90
2019-04-14T01:15:07.095Z,971.88
2019-04-14T01:16:13.225Z,971.86
2019-04-14T01:17:06.926Z,971.86
2019-04-14T01:18:05.850Z,971.92
2019-04-14T01:19:06.811Z,971.91
2019-04-14T01:20:05.766Z,971.93
2019-04-14T01:21:06.689Z,971.88
2019-04-14T01:22:05.713Z,971.93
2019-04-14T01:23:06.337Z,971.94
2019-04-14T01:24:05.647Z,971.94
2019-04-14T01:25:06.417Z,971.87
2019-04-14T01:26:05.593Z,971.88
2019-04-14T01:27:06.062Z,971.89
2019-04-14T01:28:06.701Z,971.87
2019-04-14T01:29:05.793Z,971.90
2019-04-14T01:30:06.557Z,971.86
2019-04-14T01:31:05.607Z,971.92
2019-04-14T01:32:06.509Z,971.93
2019-04-14T01:33:05.512Z,971.97
2019-04-14T01:34:06.336Z,972.00
2019-04-14T01:35:05.413Z,971.97
2019-04-14T01:36:06.093Z,971.95
2019-04-14T01:37:05.280Z,971.90
2019-04-14T01:38:05.882Z,972.00
2019-04-14T01:39:05.227Z,972.02
2019-04-14T01:40:05.331Z,971.97
2019-04-14T01:41:06.322Z,972.00
2019-04-14T01:42:05.139Z,971.99
2019-04-14T01:43:05.931Z,972.02
2019-04-14T01:44:05.085Z,972.00
2019-04-14T01:45:05.663Z,972.03
2019-04-14T01:46:11.627Z,971.99
2019-04-14T01:47:05.270Z,971.99
2019-04-14T01:48:05.982Z,972.02
2019-04-14T01:49:05.092Z,972.06
2019-04-14T01:50:05.913Z,972.04
2019-04-14T01:51:04.950Z,972.02
2019-04-14T01:52:05.699Z,971.99
2019-04-14T01:53:05.387Z,972.04
2019-04-14T01:54:05.851Z,972.02
2019-04-14T01:55:04.825Z,972.00
2019-04-14T01:56:05.626Z,972.07
2019-04-14T01:57:04.720Z,972.04
2019-04-14T01:58:05.376Z,972.02
2019-04-14T01:59:04.663Z,972.07
2019-04-14T02:00:05.357Z,972.04
2019-04-14T02:01:04.604Z,972.12
2019-04-14T02:02:05.115Z,972.15
2019-04-14T02:03:04.540Z,972.11
2019-04-14T02:04:04.949Z,972.13
2019-04-14T02:05:04.503Z,972.16
2019-04-14T02:06:04.795Z,972.10
2019-04-14T02:07:04.429Z,972.14
2019-04-14T02:08:04.512Z,972.15
2019-04-14T02:09:05.359Z,972.14
2019-04-14T02:10:04.337Z,972.14
2019-04-14T02:11:05.230Z,972.15
2019-04-14T02:12:04.286Z,972.19
2019-04-14T02:13:04.991Z,972.11
2019-04-14T02:14:04.229Z,972.12
2019-04-14T02:15:11.394Z,972.15
2019-04-14T02:17:00.534Z,972.15
2019-04-14T02:17:57.036Z,972.19
2019-04-14T02:19:50.291Z,972.18
2019-04-14T02:20:51.056Z,972.23
2019-04-14T02:21:49.995Z,972.24
2019-04-14T02:22:50.630Z,972.25
2019-04-14T02:23:49.898Z,972.23
2019-04-14T02:24:50.306Z,972.23
2019-04-14T02:25:49.738Z,972.27
2019-04-14T02:26:50.283Z,972.29
2019-04-14T02:27:49.679Z,972.19
2019-04-14T02:28:50.414Z,972.25
2019-04-14T02:29:49.624Z,972.21
2019-04-14T02:31:00.104Z,972.20
2019-04-14T02:32:17.535Z,972.21
2019-04-14T02:33:23.604Z,972.21
2019-04-14T02:34:17.479Z,972.19
2019-04-14T02:36:27.365Z,972.19
2019-04-14T02:38:23.188Z,972.21
2019-04-14T02:40:18.122Z,972.22
2019-04-14T02:41:18.731Z,972.22
2019-04-14T02:45:24.572Z,972.26
2019-04-14T02:46:14.989Z,972.24
2019-04-14T02:47:38.883Z,972.25
2019-04-14T02:48:31.506Z,972.24
2019-04-14T02:49:11.186Z,972.24
2019-04-14T02:50:10.911Z,972.28
2019-04-14T02:51:19.389Z,972.24
2019-04-14T02:53:18.502Z,972.25
2019-04-14T02:54:32.960Z,972.30
2019-04-14T02:55:08.776Z,972.31
2019-04-14T02:56:21.934Z,972.35
2019-04-14T02:57:20.502Z,972.34
2019-04-14T02:58:20.383Z,972.36
2019-04-14T02:59:11.698Z,972.36
2019-04-14T03:00:16.744Z,972.38
2019-04-14T03:01:24.095Z,972.44
2019-04-14T03:02:22.890Z,972.36
2019-04-14T03:03:16.881Z,972.40
2019-04-14T03:04:14.675Z,972.39
2019-04-14T03:05:09.739Z,972.43
2019-04-14T03:06:20.392Z,972.43
2019-04-14T03:07:19.043Z,972.41
2019-04-14T03:08:17.189Z,972.42
2019-04-14T03:09:24.348Z,972.39
2019-04-14T03:10:20.393Z,972.43
2019-04-14T03:12:19.086Z,972.40
2019-04-14T03:13:21.075Z,972.42
2019-04-14T03:14:19.757Z,972.40
2019-04-14T03:15:20.077Z,972.37
2019-04-14T03:16:21.722Z,972.36
2019-04-14T03:17:24.818Z,972.36
2019-04-14T03:19:16.509Z,972.44
2019-04-14T03:20:20.128Z,972.37
2019-04-14T03:21:19.498Z,972.40
2019-04-14T03:22:25.519Z,972.40
2019-04-14T03:23:18.938Z,972.36
2019-04-14T03:24:13.132Z,972.41
2019-04-14T03:25:03.070Z,972.40
2019-04-14T03:26:15.623Z,972.38
2019-04-14T03:27:13.551Z,972.38
2019-04-14T03:28:06.984Z,972.33
2019-04-14T03:29:19.209Z,972.31
2019-04-14T03:30:39.287Z,972.28
2019-04-14T03:31:47.260Z,972.32
2019-04-14T03:32:26.529Z,972.33
2019-04-14T03:33:43.503Z,972.30
2019-04-14T03:35:35.059Z,972.33
2019-04-14T03:36:44.134Z,972.22
2019-04-14T03:38:18.916Z,972.25
2019-04-14T03:39:33.476Z,972.24
2019-04-14T03:40:09.980Z,972.23
2019-04-14T03:41:17.528Z,972.24
2019-04-14T03:43:18.705Z,972.20
2019-04-14T03:44:37.790Z,972.19
2019-04-14T03:45:20.690Z,972.21
2019-04-14T03:47:13.802Z,972.24
2019-04-14T03:49:22.032Z,972.24
2019-04-14T03:50:13.686Z,972.23
2019-04-14T03:51:18.922Z,972.21
2019-04-14T03:52:13.080Z,972.23
2019-04-14T03:53:15.868Z,972.22
2019-04-14T03:54:23.590Z,972.23
2019-04-14T03:55:01.232Z,972.28
2019-04-14T03:55:54.537Z,972.30
2019-04-14T03:56:47.131Z,972.29
2019-04-14T03:57:47.651Z,972.26
2019-04-14T03:58:47.071Z,972.29
2019-04-14T03:59:47.798Z,972.33
2019-04-14T04:00:47.026Z,972.28
2019-04-14T04:01:47.883Z,972.26
2019-04-14T04:02:46.959Z,972.27
2019-04-14T04:03:47.857Z,972.30
2019-04-14T04:04:46.903Z,972.27
2019-04-14T04:05:47.862Z,972.28
2019-04-14T04:06:46.845Z,972.26
2019-04-14T04:07:47.478Z,972.27
2019-04-14T04:08:46.785Z,972.23
2019-04-14T04:09:47.536Z,972.25
2019-04-14T04:10:46.733Z,972.27
2019-04-14T04:11:47.627Z,972.22
2019-04-14T04:12:46.672Z,972.22
2019-04-14T04:13:47.689Z,972.26
2019-04-14T04:14:46.615Z,972.23
2019-04-14T04:15:47.582Z,972.30
2019-04-14T04:16:46.557Z,972.36
2019-04-14T04:17:47.288Z,972.30
2019-04-14T04:18:56.469Z,972.32
2019-04-14T04:19:46.981Z,972.31
2019-04-14T04:20:47.648Z,972.35
2019-04-14T04:21:46.640Z,972.31
2019-04-14T04:22:47.572Z,972.34
2019-04-14T04:23:46.822Z,972.39
2019-04-14T04:24:47.504Z,972.38
2019-04-14T04:25:46.578Z,972.40
2019-04-14T04:26:47.222Z,972.43
2019-04-14T04:27:46.248Z,972.46
2019-04-14T04:28:47.157Z,972.43
2019-04-14T04:29:46.308Z,972.45
2019-04-14T04:30:47.002Z,972.43
2019-04-14T04:31:46.218Z,972.43
2019-04-14T04:32:46.904Z,972.38
2019-04-14T04:33:46.072Z,972.40
2019-04-14T04:34:46.645Z,972.41
2019-04-14T04:35:46.009Z,972.43
2019-04-14T04:36:46.359Z,972.44
2019-04-14T04:37:45.955Z,972.45
2019-04-14T04:38:46.321Z,972.48
2019-04-14T04:39:45.898Z,972.50
2019-04-14T04:40:46.129Z,972.51
2019-04-14T04:41:45.843Z,972.47
2019-04-14T04:42:45.896Z,972.49
2019-04-14T04:43:45.783Z,972.50
2019-04-14T04:44:46.357Z,972.52
2019-04-14T04:45:45.730Z,972.52
2019-04-14T04:46:45.993Z,972.55
2019-04-14T04:47:46.915Z,972.53
2019-04-14T04:48:57.975Z,972.52
2019-04-14T04:49:46.773Z,972.55
2019-04-14T04:50:45.593Z,972.55
2019-04-14T04:51:46.555Z,972.51
2019-04-14T04:52:45.532Z,972.54
2019-04-14T04:53:46.215Z,972.53
2019-04-14T04:54:45.475Z,972.54
2019-04-14T04:55:46.074Z,972.54
2019-04-14T04:56:45.407Z,972.56
2019-04-14T04:57:45.985Z,972.62
2019-04-14T04:58:45.649Z,972.57
2019-04-14T04:59:45.373Z,972.57
2019-04-14T05:00:47.356Z,972.58
2019-04-14T05:01:45.270Z,972.57
2019-04-14T05:02:46.068Z,972.57
2019-04-14T05:03:45.215Z,972.56
2019-04-14T05:04:46.029Z,972.55
2019-04-14T05:05:45.155Z,972.52
2019-04-14T05:06:45.911Z,972.52
2019-04-14T05:07:45.115Z,972.53
2019-04-14T05:08:45.556Z,972.57
2019-04-14T05:09:45.053Z,972.51
2019-04-14T05:10:45.692Z,972.56
2019-04-14T05:11:44.985Z,972.58
2019-04-14T05:12:45.680Z,972.58
2019-04-14T05:13:44.927Z,972.57
2019-04-14T05:14:45.590Z,972.61
2019-04-14T05:15:44.872Z,972.61
2019-04-14T05:16:46.048Z,972.64
2019-04-14T05:17:45.278Z,972.63
2019-04-14T05:18:44.782Z,972.68
2019-04-14T05:19:45.493Z,972.64
2019-04-14T05:20:44.738Z,972.66
2019-04-14T05:21:45.204Z,972.62
2019-04-14T05:22:44.668Z,972.63
2019-04-14T05:23:45.328Z,972.69
2019-04-14T05:24:44.619Z,972.69
2019-04-14T05:25:45.228Z,972.68
2019-04-14T05:26:44.559Z,972.72
2019-04-14T05:27:45.222Z,972.67
2019-04-14T05:28:44.505Z,972.64
2019-04-14T05:29:45.099Z,972.66
2019-04-14T05:30:45.725Z,972.67
2019-04-14T05:31:44.732Z,972.67
2019-04-14T05:32:45.446Z,972.67
2019-04-14T05:33:44.750Z,972.64
2019-04-14T05:34:45.405Z,972.66
2019-04-14T05:35:44.591Z,972.63
2019-04-14T05:36:45.328Z,972.63
2019-04-14T05:37:44.440Z,972.61
2019-04-14T05:38:45.005Z,972.67
2019-04-14T05:39:44.209Z,972.66
2019-04-14T05:40:45.053Z,972.71
2019-04-14T05:41:56.738Z,972.73
2019-04-14T05:42:45.067Z,972.70
2019-04-14T05:43:51.415Z,972.68
2019-04-14T05:44:44.802Z,972.71
2019-04-14T05:45:44.028Z,972.74
2019-04-14T05:46:44.648Z,972.68
2019-04-14T05:47:43.970Z,972.69
2019-04-14T05:48:44.677Z,972.75
2019-04-14T05:49:48.257Z,972.65
2019-04-14T05:50:44.377Z,972.70
2019-04-14T05:51:43.860Z,972.73
2019-04-14T05:52:44.714Z,972.71
2019-04-14T05:53:43.921Z,972.70
2019-04-14T05:54:44.731Z,972.73
2019-04-14T05:55:43.854Z,972.71
2019-04-14T05:56:44.756Z,972.71
2019-04-14T05:57:43.830Z,972.66
2019-04-14T05:58:44.634Z,972.74
2019-04-14T05:59:44.055Z,972.77
2019-04-14T06:00:43.779Z,972.80
2019-04-14T06:01:44.308Z,972.75
2019-04-14T06:02:44.121Z,972.79
2019-04-14T06:03:43.536Z,972.81
2019-04-14T06:04:43.967Z,972.78
2019-04-14T06:05:43.473Z,972.85
2019-04-14T06:06:43.454Z,972.80
2019-04-14T06:07:43.418Z,972.85
2019-04-14T06:08:43.402Z,972.84
2019-04-14T06:09:43.372Z,972.86
2019-04-14T06:10:43.344Z,972.86
2019-04-14T06:11:43.322Z,972.85
2019-04-14T06:12:43.291Z,972.86
2019-04-14T06:13:43.268Z,972.91
2019-04-14T06:14:43.244Z,972.90
2019-04-14T06:15:43.217Z,972.87
2019-04-14T06:16:43.190Z,972.85
2019-04-14T06:17:43.167Z,972.93
2019-04-14T06:18:43.144Z,972.93
2019-04-14T06:19:50.293Z,972.92
2019-04-14T06:21:43.394Z,972.96
2019-04-14T06:22:35.963Z,972.94
2019-04-14T06:24:29.862Z,973.00
2019-04-14T06:25:29.832Z,972.96
2019-04-14T06:27:22.729Z,972.97
2019-04-14T06:28:22.676Z,973.03
2019-04-14T06:30:15.582Z,973.02
2019-04-14T06:31:15.526Z,972.99
2019-04-14T06:33:08.406Z,973.03
2019-04-14T06:34:08.379Z,973.01
2019-04-14T06:35:08.351Z,973.06
2019-04-14T06:36:08.326Z,973.02
2019-04-14T06:37:08.305Z,972.99
2019-04-14T06:38:08.285Z,973.02
2019-04-14T06:39:08.258Z,973.03
2019-04-14T06:40:08.230Z,973.07
2019-04-14T06:41:08.211Z,973.05
2019-04-14T06:42:08.189Z,973.13
2019-04-14T06:43:08.162Z,973.13
2019-04-14T06:44:08.135Z,973.12
2019-04-14T06:45:08.114Z,973.16
2019-04-14T06:46:08.088Z,973.13
2019-04-14T06:47:08.076Z,973.05
2019-04-14T06:48:08.042Z,973.07
2019-04-14T06:49:08.021Z,973.08
2019-04-14T06:50:07.997Z,973.08
2019-04-14T06:51:07.975Z,973.07
2019-04-14T06:52:07.950Z,973.08
2019-04-14T06:53:07.927Z,973.08
2019-04-14T06:54:07.904Z,973.10
2019-04-14T06:55:07.882Z,973.16
2019-04-14T06:56:07.859Z,973.19
2019-04-14T06:57:07.841Z,973.18
2019-04-14T06:58:07.814Z,973.15
2019-04-14T06:59:07.793Z,973.20
2019-04-14T07:00:07.770Z,973.12
2019-04-14T07:01:07.747Z,973.21
2019-04-14T07:02:08.698Z,973.17
2019-04-14T07:03:07.703Z,973.18
2019-04-14T07:04:07.683Z,973.18
2019-04-14T07:05:07.661Z,973.17
2019-04-14T07:06:07.639Z,973.20
2019-04-14T07:07:07.619Z,973.20
2019-04-14T07:08:07.597Z,973.14
2019-04-14T07:09:07.577Z,973.19
2019-04-14T07:10:07.558Z,973.19
2019-04-14T07:11:07.537Z,973.22
2019-04-14T07:12:07.602Z,973.18
2019-04-14T07:13:07.558Z,973.19
2019-04-14T07:14:07.480Z,973.13
2019-04-14T07:15:07.458Z,973.19
2019-04-14T07:16:07.443Z,973.21
2019-04-14T07:17:07.422Z,973.20
2019-04-14T07:18:07.403Z,973.19
2019-04-14T07:19:07.382Z,973.20
2019-04-14T07:20:07.363Z,973.18
2019-04-14T07:21:07.342Z,973.23
2019-04-14T07:22:07.326Z,973.24
2019-04-14T07:23:07.307Z,973.24
2019-04-14T07:24:07.288Z,973.20
2019-04-14T07:25:07.268Z,973.27
2019-04-14T07:26:07.250Z,973.24
2019-04-14T07:27:07.240Z,973.28
2019-04-14T07:28:07.215Z,973.30
2019-04-14T07:29:07.197Z,973.29
2019-04-14T07:30:07.202Z,973.31
2019-04-14T07:31:07.163Z,973.29
2019-04-14T07:32:07.146Z,973.34
2019-04-14T07:33:07.128Z,973.27
2019-04-14T07:34:07.113Z,973.31
2019-04-14T07:35:07.092Z,973.31
2019-04-14T07:36:07.077Z,973.27
2019-04-14T07:37:07.058Z,973.34
2019-04-14T07:38:07.042Z,973.27
2019-04-14T07:39:07.026Z,973.24
2019-04-14T07:40:07.010Z,973.30
2019-04-14T07:41:06.994Z,973.30
2019-04-14T07:42:06.976Z,973.33
2019-04-14T07:43:06.959Z,973.34
2019-04-14T07:44:06.934Z,973.24
2019-04-14T07:45:06.923Z,973.20
2019-04-14T07:46:06.908Z,973.30
2019-04-14T07:47:06.887Z,973.23
2019-04-14T07:48:06.878Z,973.20
2019-04-14T07:49:06.859Z,973.28
2019-04-14T07:50:14.581Z,973.30
2019-04-14T07:51:06.823Z,973.18
2019-04-14T07:52:06.804Z,973.15
2019-04-14T07:53:06.791Z,973.25
2019-04-14T07:54:06.772Z,973.31
2019-04-14T07:55:06.758Z,973.38
2019-04-14T07:56:06.746Z,973.25
2019-04-14T07:57:06.724Z,973.30
2019-04-14T07:58:06.707Z,973.22
2019-04-14T07:59:06.694Z,973.19
2019-04-14T08:00:06.684Z,973.18
2019-04-14T08:01:06.661Z,973.24
2019-04-14T08:02:06.641Z,973.18
2019-04-14T08:03:06.625Z,973.14
2019-04-14T08:04:06.603Z,973.19
2019-04-14T08:05:06.591Z,973.13
2019-04-14T08:06:06.569Z,973.17
2019-04-14T08:07:06.560Z,973.16
2019-04-14T08:08:06.540Z,973.13
2019-04-14T08:09:06.523Z,973.20
2019-04-14T08:10:06.508Z,973.26
2019-04-14T08:11:06.490Z,973.24
2019-04-14T08:12:06.474Z,973.27
2019-04-14T08:13:06.458Z,973.24
2019-04-14T08:14:06.438Z,973.31
2019-04-14T08:15:06.424Z,973.30
2019-04-14T08:16:06.408Z,973.24
2019-04-14T08:17:06.390Z,973.21
2019-04-14T08:18:06.373Z,973.27
2019-04-14T08:19:06.360Z,973.27
2019-04-14T08:20:06.347Z,973.37
2019-04-14T08:21:06.323Z,973.31
2019-04-14T08:22:06.310Z,973.44
2019-04-14T08:23:06.294Z,973.42
2019-04-14T08:24:06.278Z,973.38
2019-04-14T08:25:06.261Z,973.42
2019-04-14T08:26:06.246Z,973.46
2019-04-14T08:27:06.224Z,973.46
2019-04-14T08:28:06.214Z,973.42
2019-04-14T08:29:06.198Z,973.47
2019-04-14T08:30:06.183Z,973.42
2019-04-14T08:31:06.167Z,973.45
2019-04-14T08:32:06.156Z,973.43
2019-04-14T08:33:06.131Z,973.42
2019-04-14T08:34:06.119Z,973.40
2019-04-14T08:35:06.110Z,973.35
2019-04-14T08:36:06.095Z,973.27
2019-04-14T08:37:06.083Z,973.37
2019-04-14T08:38:06.064Z,973.39
2019-04-14T08:39:06.051Z,973.34
2019-04-14T08:40:06.043Z,973.28
2019-04-14T08:41:06.025Z,973.24
2019-04-14T08:42:06.009Z,973.04
2019-04-14T08:43:05.991Z,973.34
2019-04-14T08:44:05.986Z,973.35
2019-04-14T08:45:05.966Z,973.33
2019-04-14T08:46:05.964Z,973.25
2019-04-14T08:47:05.935Z,973.29
2019-04-14T08:48:05.922Z,973.30
2019-04-14T08:49:05.913Z,973.36
2019-04-14T08:50:05.894Z,973.33
2019-04-14T08:51:05.882Z,973.32
2019-04-14T08:52:05.867Z,973.36
2019-04-14T08:53:05.851Z,973.29
2019-04-14T08:54:05.838Z,973.30
2019-04-14T08:55:05.828Z,973.00
2019-04-14T08:56:05.811Z,973.28
2019-04-14T08:57:05.797Z,973.37
2019-04-14T08:58:05.786Z,973.41
2019-04-14T08:59:05.769Z,973.45
2019-04-14T09:00:05.757Z,973.50
2019-04-14T09:01:05.743Z,973.41
2019-04-14T09:02:05.732Z,973.40
2019-04-14T09:03:05.710Z,973.48
2019-04-14T09:04:05.703Z,973.50
2019-04-14T09:05:05.691Z,973.43
2019-04-14T09:06:05.675Z,973.56
2019-04-14T09:07:05.666Z,973.40
2019-04-14T09:08:05.648Z,973.57
2019-04-14T09:09:07.348Z,973.58
2019-04-14T09:10:05.624Z,973.55
2019-04-14T09:11:05.617Z,973.01
2019-04-14T09:12:15.363Z,973.56
2019-04-14T09:13:05.587Z,973.48
2019-04-14T09:14:05.575Z,973.59
2019-04-14T09:15:05.562Z,973.63
2019-04-14T09:16:05.546Z,973.20
2019-04-14T09:17:05.535Z,973.76
2019-04-14T09:18:05.519Z,973.04
2019-04-14T09:19:07.756Z,973.84
2019-04-14T09:20:05.496Z,973.92
2019-04-14T09:21:05.484Z,973.24
2019-04-14T09:22:05.472Z,973.96
2019-04-14T09:23:05.461Z,973.64
2019-04-14T09:24:05.451Z,973.44
2019-04-14T09:25:05.435Z,973.21
2019-04-14T09:26:05.422Z,973.84
2019-04-14T09:27:05.451Z,974.01
2019-04-14T09:28:05.393Z,973.28
2019-04-14T09:29:05.381Z,973.78
2019-04-14T09:30:05.374Z,973.79
2019-04-14T09:31:05.353Z,973.16
2019-04-14T09:32:05.339Z,973.35
2019-04-14T09:33:05.324Z,973.39
2019-04-14T09:34:05.313Z,973.99
2019-04-14T09:35:05.300Z,973.40
2019-04-14T09:36:05.284Z,973.74
2019-04-14T09:37:05.272Z,973.12
2019-04-14T09:38:05.259Z,973.16
2019-04-14T09:39:05.242Z,973.29
2019-04-14T09:40:05.232Z,973.54
2019-04-14T09:41:05.215Z,973.50
2019-04-14T09:42:05.258Z,973.46
2019-04-14T09:43:05.188Z,973.19
2019-04-14T09:44:05.167Z,973.10
2019-04-14T09:45:05.150Z,973.13
2019-04-14T09:46:05.137Z,973.52
2019-04-14T09:47:05.117Z,973.31
2019-04-14T09:48:05.106Z,973.15
2019-04-14T09:49:05.088Z,973.16
2019-04-14T09:50:05.076Z,973.03
2019-04-14T09:51:05.405Z,973.16
2019-04-14T09:52:05.039Z,973.03
2019-04-14T09:53:05.019Z,973.08
2019-04-14T09:54:05.008Z,973.08
2019-04-14T09:55:04.992Z,973.09
2019-04-14T09:56:04.974Z,973.15
2019-04-14T09:57:04.956Z,973.12
2019-04-14T09:58:04.946Z,973.22
2019-04-14T09:59:04.920Z,973.24
2019-04-14T10:00:04.903Z,973.20
2019-04-14T10:01:04.894Z,973.21
2019-04-14T10:02:04.892Z,973.41
2019-04-14T10:03:04.852Z,973.34
2019-04-14T10:04:04.849Z,973.23
2019-04-14T10:05:04.816Z,973.36
2019-04-14T10:06:04.805Z,973.27
2019-04-14T10:07:04.788Z,973.34
2019-04-14T10:08:04.759Z,973.37
2019-04-14T10:09:04.742Z,973.44
2019-04-14T10:10:04.731Z,973.42
2019-04-14T10:11:04.713Z,973.43
2019-04-14T10:12:11.893Z,973.43
2019-04-14T10:14:04.978Z,973.36
2019-04-14T10:15:04.732Z,973.41
2019-04-14T10:16:50.448Z,973.22
2019-04-14T10:17:57.608Z,973.31
2019-04-14T10:19:43.343Z,973.31
2019-04-14T10:20:43.297Z,973.36
2019-04-14T10:21:43.279Z,973.37
2019-04-14T10:22:43.268Z,973.45
2019-04-14T10:23:43.245Z,973.35
2019-04-14T10:24:43.224Z,973.34
2019-04-14T10:25:43.222Z,973.36
2019-04-14T10:26:43.187Z,973.37
2019-04-14T10:27:43.172Z,973.30
2019-04-14T10:28:43.148Z,973.32
2019-04-14T10:29:43.133Z,973.21
2019-04-14T10:30:43.110Z,973.25
2019-04-14T10:31:43.096Z,973.23
2019-04-14T10:32:43.077Z,973.28
2019-04-14T10:33:43.057Z,973.22
2019-04-14T10:34:43.041Z,973.22
2019-04-14T10:35:43.024Z,973.25
2019-04-14T10:36:43.005Z,973.29
2019-04-14T10:37:42.983Z,973.28
2019-04-14T10:38:42.968Z,973.29
2019-04-14T10:39:42.948Z,973.30
2019-04-14T10:40:42.928Z,973.26
2019-04-14T10:41:42.911Z,973.30
2019-04-14T10:42:42.890Z,973.30
2019-04-14T10:43:42.871Z,973.24
2019-04-14T10:44:42.854Z,973.32
2019-04-14T10:45:42.831Z,973.33
2019-04-14T10:46:42.814Z,973.35
2019-04-14T10:47:42.794Z,973.36
2019-04-14T10:48:42.774Z,973.34
2019-04-14T10:49:42.757Z,973.34
2019-04-14T10:50:42.734Z,973.40
2019-04-14T10:51:42.716Z,973.41
2019-04-14T10:52:42.695Z,973.35
2019-04-14T10:53:42.674Z,973.42
2019-04-14T10:54:42.650Z,973.39
2019-04-14T10:55:42.635Z,973.44
2019-04-14T10:56:42.609Z,973.41
2019-04-14T10:57:42.590Z,973.48
2019-04-14T10:58:42.572Z,973.52
2019-04-14T10:59:42.554Z,973.51
2019-04-14T11:00:42.528Z,973.45
2019-04-14T11:01:42.513Z,973.43
2019-04-14T11:02:42.489Z,973.48
2019-04-14T11:03:42.472Z,973.50
2019-04-14T11:04:42.442Z,973.50
2019-04-14T11:05:42.502Z,973.49
2019-04-14T11:06:42.482Z,973.53
2019-04-14T11:07:42.454Z,973.56
2019-04-14T11:08:42.430Z,973.64
2019-04-14T11:09:42.414Z,973.65
2019-04-14T11:10:42.315Z,973.60
2019-04-14T11:11:42.295Z,973.60
2019-04-14T11:12:42.351Z,973.57
2019-04-14T11:13:42.319Z,973.61
2019-04-14T11:14:42.306Z,973.57
2019-04-14T11:15:42.278Z,973.66
2019-04-14T11:16:42.257Z,973.60
2019-04-14T11:17:42.232Z,973.67
2019-04-14T11:18:42.215Z,973.67
2019-04-14T11:19:42.119Z,973.66
2019-04-14T11:20:42.100Z,973.61
2019-04-14T11:21:43.114Z,973.66
2019-04-14T11:22:42.054Z,973.59
2019-04-14T11:23:42.028Z,973.67
2019-04-14T11:24:42.001Z,973.63
2019-04-14T11:25:41.984Z,973.59
2019-04-14T11:26:41.960Z,973.74
2019-04-14T11:27:41.947Z,973.73
2019-04-14T11:28:41.917Z,973.70
2019-04-14T11:29:41.895Z,973.72
2019-04-14T11:30:41.872Z,973.70
2019-04-14T11:31:41.849Z,973.67
2019-04-14T11:32:41.828Z,973.79
2019-04-14T11:33:41.804Z,973.66
2019-04-14T11:34:41.782Z,973.73
2019-04-14T11:35:41.758Z,973.73
2019-04-14T11:36:41.754Z,973.76
2019-04-14T11:37:41.721Z,973.82
2019-04-14T11:38:41.702Z,973.81
2019-04-14T11:39:41.664Z,973.75
2019-04-14T11:40:41.648Z,973.76
2019-04-14T11:41:41.620Z,973.79
2019-04-14T11:42:51.795Z,973.82
2019-04-14T11:43:41.580Z,973.81
2019-04-14T11:44:41.569Z,973.85
2019-04-14T11:45:41.531Z,973.84
2019-04-14T11:46:41.509Z,973.84
2019-04-14T11:47:41.484Z,973.88
2019-04-14T11:48:41.461Z,973.88
2019-04-14T11:49:41.459Z,973.91
2019-04-14T11:50:41.417Z,973.90
2019-04-14T11:51:41.392Z,973.87
2019-04-14T11:52:41.373Z,973.90
2019-04-14T11:53:41.358Z,973.89
2019-04-14T11:54:41.324Z,973.94
2019-04-14T11:55:41.304Z,973.90
2019-04-14T11:56:41.283Z,973.92
2019-04-14T11:57:41.259Z,973.95
2019-04-14T11:58:41.242Z,974.03
2019-04-14T11:59:41.209Z,973.95
2019-04-14T12:00:41.185Z,973.94
2019-04-14T12:01:41.162Z,973.97
2019-04-14T12:02:41.141Z,973.96
2019-04-14T12:03:41.119Z,974.01
2019-04-14T12:04:41.104Z,974.00
2019-04-14T12:05:41.070Z,974.02
2019-04-14T12:06:41.049Z,973.95
2019-04-14T12:07:41.028Z,974.03
2019-04-14T12:08:40.999Z,973.97
2019-04-14T12:09:40.979Z,973.99
2019-04-14T12:10:40.955Z,974.11
2019-04-14T12:11:40.926Z,974.01
2019-04-14T12:12:40.908Z,974.04
2019-04-14T12:13:40.884Z,974.07
2019-04-14T12:14:40.865Z,974.04
2019-04-14T12:15:40.838Z,974.08
2019-04-14T12:16:40.812Z,974.09
2019-04-14T12:17:40.782Z,974.07
2019-04-14T12:18:40.764Z,973.99
2019-04-14T12:19:40.742Z,974.06
2019-04-14T12:20:40.718Z,974.11
2019-04-14T12:21:40.699Z,974.09
2019-04-14T12:22:40.674Z,974.15
2019-04-14T12:23:40.645Z,974.02
2019-04-14T12:24:40.622Z,974.07
2019-04-14T12:25:40.601Z,974.16
2019-04-14T12:26:40.569Z,974.07
2019-04-14T12:27:40.550Z,974.07
2019-04-14T12:28:40.551Z,974.12
2019-04-14T12:29:41.218Z,974.11
2019-04-14T12:30:40.477Z,974.16
2019-04-14T12:31:40.450Z,974.19
2019-04-14T12:32:40.430Z,974.14
2019-04-14T12:33:40.409Z,974.14
2019-04-14T12:34:40.377Z,974.16
2019-04-14T12:35:40.361Z,974.14
2019-04-14T12:36:40.333Z,974.18
2019-04-14T12:37:40.312Z,974.17
2019-04-14T12:38:40.286Z,974.20
2019-04-14T12:39:40.261Z,974.20
2019-04-14T12:40:40.290Z,974.21
2019-04-14T12:41:40.211Z,974.25
2019-04-14T12:42:40.191Z,974.23
2019-04-14T12:43:40.165Z,974.12
2019-04-14T12:44:40.144Z,974.14
2019-04-14T12:45:40.115Z,974.12
2019-04-14T12:46:40.103Z,974.19
2019-04-14T12:47:40.589Z,974.23
2019-04-14T12:48:40.045Z,974.20
2019-04-14T12:49:40.023Z,974.18
2019-04-14T12:50:39.999Z,974.13